createdAt,value
2023-05-04T00:01:47.826Z,21.09
2023-05-04T00:04:17.604Z,21.12
2023-05-04T00:06:47.578Z,21.10
2023-05-04T00:09:17.326Z,20.90
2023-05-04T00:11:47.218Z,20.91
2023-05-04T00:14:16.474Z,20.98
2023-05-04T00:16:45.891Z,20.86
2023-05-04T00:19:15.854Z,20.87
2023-05-04T00:21:45.070Z,20.66
2023-05-04T00:24:14.581Z,20.76
2023-05-04T00:26:46.468Z,20.71
2023-05-04T00:29:16.001Z,20.70
2023-05-04T00:31:45.418Z,20.83
2023-05-04T00:34:15.357Z,20.97
2023-05-04T00:36:44.870Z,20.94
2023-05-04T00:39:15.702Z,20.82
2023-05-04T00:41:47.025Z,20.93
2023-05-04T00:44:17.461Z,21.06
2023-05-04T00:46:47.345Z,20.90
2023-05-04T00:49:17.277Z,20.92
2023-05-04T00:51:48.617Z,20.89
2023-05-04T00:54:22.014Z,20.95
2023-05-04T00:56:51.515Z,20.79
2023-05-04T00:59:21.316Z,20.79
2023-05-04T01:01:50.315Z,20.85
2023-05-04T01:04:21.225Z,21.16
2023-05-04T01:06:58.871Z,21.04
2023-05-04T01:09:53.731Z,20.99
2023-05-04T01:12:44.226Z,21.07
2023-05-04T01:15:14.528Z,21.11
2023-05-04T01:17:44.251Z,21.27
2023-05-04T01:20:13.442Z,21.30
2023-05-04T01:22:43.041Z,21.39
2023-05-04T01:25:13.054Z,21.48
2023-05-04T01:27:51.668Z,21.43
2023-05-04T01:30:21.710Z,21.48
2023-05-04T01:32:53.557Z,21.57
2023-05-04T01:35:23.051Z,21.60
2023-05-04T01:37:52.624Z,21.71
2023-05-04T01:40:21.745Z,21.83
2023-05-04T01:42:52.281Z,21.92
2023-05-04T01:45:22.498Z,22.09
2023-05-04T01:47:52.356Z,22.19
2023-05-04T01:50:21.866Z,22.34
2023-05-04T01:52:51.763Z,22.24
2023-05-04T01:55:21.171Z,22.38
2023-05-04T01:57:50.456Z,22.48
2023-05-04T02:00:20.591Z,22.61
2023-05-04T02:02:49.942Z,22.58
2023-05-04T02:05:21.342Z,22.72
2023-05-04T02:07:51.043Z,22.93
2023-05-04T02:10:20.260Z,23.53
2023-05-04T02:12:49.595Z,23.84
2023-05-04T02:15:19.148Z,23.70
2023-05-04T02:17:48.974Z,24.14
2023-05-04T02:20:19.891Z,24.10
2023-05-04T02:22:49.248Z,24.44
2023-05-04T02:25:20.379Z,24.86
2023-05-04T02:27:49.558Z,25.09
2023-05-04T02:30:18.729Z,25.30
2023-05-04T02:32:48.165Z,25.66
2023-05-04T02:35:17.505Z,25.66
2023-05-04T02:37:46.895Z,26.18
2023-05-04T02:40:17.036Z,26.47
2023-05-04T02:42:46.937Z,26.41
2023-05-04T02:45:16.591Z,26.69
2023-05-04T02:47:45.867Z,26.70
2023-05-04T02:50:15.655Z,26.58
2023-05-04T02:52:44.753Z,26.95
2023-05-04T02:55:14.294Z,26.66
2023-05-04T02:57:43.288Z,26.79
2023-05-04T03:00:13.358Z,26.67
2023-05-04T03:02:42.614Z,25.99
2023-05-04T03:05:12.140Z,26.36
2023-05-04T03:07:41.364Z,26.44
2023-05-04T03:10:11.360Z,26.21
2023-05-04T03:12:40.831Z,26.01
2023-05-04T03:15:10.655Z,26.27
2023-05-04T03:17:39.924Z,26.09
2023-05-04T03:20:10.835Z,26.20
2023-05-04T03:22:40.045Z,26.25
2023-05-04T03:25:10.669Z,26.48
2023-05-04T03:27:40.103Z,26.56
2023-05-04T03:30:10.416Z,26.69
2023-05-04T03:32:41.216Z,27.02
2023-05-04T03:35:10.876Z,26.98
2023-05-04T03:37:40.077Z,26.65
2023-05-04T03:40:09.968Z,26.54
2023-05-04T03:42:39.341Z,26.66
2023-05-04T03:45:09.631Z,26.69
2023-05-04T03:47:38.882Z,26.54
2023-05-04T03:50:08.767Z,27.14
2023-05-04T03:52:38.396Z,27.24
2023-05-04T03:55:09.396Z,26.95
2023-05-04T03:57:38.744Z,26.95
2023-05-04T04:00:08.476Z,26.63
2023-05-04T04:02:43.882Z,26.91
2023-05-04T04:05:19.790Z,27.71
2023-05-04T04:07:51.761Z,28.03
2023-05-04T04:10:21.784Z,28.11
2023-05-04T04:12:51.774Z,27.97
2023-05-04T04:15:21.096Z,27.97
2023-05-04T04:17:50.905Z,28.06
2023-05-04T04:20:22.738Z,28.22
2023-05-04T04:22:52.308Z,28.71
2023-05-04T04:25:22.384Z,29.00
2023-05-04T04:27:52.807Z,28.59
2023-05-04T04:30:22.918Z,29.15
2023-05-04T04:32:52.433Z,29.45
2023-05-04T04:35:21.730Z,29.57
2023-05-04T04:37:52.380Z,29.43
2023-05-04T04:40:23.563Z,29.58
2023-05-04T04:42:53.711Z,29.59
2023-05-04T04:45:24.608Z,30.20
2023-05-04T04:47:54.218Z,30.33
2023-05-04T04:50:23.785Z,30.72
2023-05-04T04:52:53.400Z,30.34
2023-05-04T04:55:25.143Z,30.24
2023-05-04T04:57:55.593Z,30.32
2023-05-04T05:00:25.323Z,30.58
2023-05-04T05:02:55.399Z,30.61
2023-05-04T05:05:24.791Z,30.83
2023-05-04T05:07:54.982Z,30.73
2023-05-04T05:10:24.408Z,30.92
2023-05-04T05:12:53.997Z,31.00
2023-05-04T05:15:23.642Z,30.41
2023-05-04T05:17:52.756Z,31.00
2023-05-04T05:20:22.870Z,30.47
2023-05-04T05:22:53.197Z,30.26
2023-05-04T05:25:23.061Z,30.89
2023-05-04T05:27:53.396Z,31.22
2023-05-04T05:30:32.052Z,31.62
2023-05-04T05:33:01.407Z,31.57
2023-05-04T05:35:30.972Z,30.76
2023-05-04T05:38:00.002Z,30.61
2023-05-04T05:40:30.478Z,30.48
2023-05-04T05:43:00.207Z,30.58
2023-05-04T05:45:29.615Z,30.98
2023-05-04T05:47:59.637Z,30.84
2023-05-04T05:50:28.969Z,30.80
2023-05-04T05:52:58.395Z,30.62
2023-05-04T05:55:27.519Z,30.76
2023-05-04T05:57:57.563Z,30.94
2023-05-04T06:00:27.148Z,31.34
2023-05-04T06:02:56.934Z,30.94
2023-05-04T06:05:26.283Z,30.83
2023-05-04T06:07:55.738Z,30.64
2023-05-04T06:10:25.685Z,30.61
2023-05-04T06:12:54.864Z,30.78
2023-05-04T06:15:24.839Z,30.58
2023-05-04T06:17:54.304Z,30.67
2023-05-04T06:20:24.068Z,30.88
2023-05-04T06:22:57.489Z,31.02
2023-05-04T06:25:32.684Z,30.64
2023-05-04T06:28:03.774Z,30.65
2023-05-04T06:30:33.845Z,30.65
2023-05-04T06:33:03.586Z,31.02
2023-05-04T06:35:32.648Z,30.94
2023-05-04T06:38:03.017Z,31.38
2023-05-04T06:40:32.478Z,31.48
2023-05-04T06:43:01.797Z,31.36
2023-05-04T06:45:31.206Z,30.99
2023-05-04T06:48:00.919Z,30.68
2023-05-04T06:50:30.990Z,31.26
2023-05-04T06:53:10.571Z,31.40
2023-05-04T06:55:40.684Z,31.05
2023-05-04T06:58:10.132Z,31.08
2023-05-04T07:00:39.933Z,30.84
2023-05-04T07:03:09.871Z,31.18
2023-05-04T07:05:39.639Z,31.11
2023-05-04T07:08:09.141Z,31.54
2023-05-04T07:10:38.415Z,31.07
2023-05-04T07:13:08.159Z,31.34
2023-05-04T07:15:38.029Z,31.45
2023-05-04T07:18:08.031Z,31.60
2023-05-04T07:20:37.771Z,31.57
2023-05-04T07:23:07.007Z,31.03
2023-05-04T07:25:36.580Z,31.33
2023-05-04T07:28:06.246Z,31.45
2023-05-04T07:30:35.720Z,31.26
2023-05-04T07:33:05.812Z,31.47
2023-05-04T07:35:34.845Z,31.32
2023-05-04T07:38:04.855Z,30.92
2023-05-04T07:40:34.067Z,30.80
2023-05-04T07:43:03.584Z,30.87
2023-05-04T07:45:32.738Z,30.61
2023-05-04T07:48:03.104Z,30.17
2023-05-04T07:50:32.534Z,29.96
2023-05-04T07:53:01.998Z,29.56
2023-05-04T07:55:32.124Z,29.32
2023-05-04T07:58:01.292Z,29.14
2023-05-04T08:00:30.824Z,28.86
2023-05-04T08:03:00.057Z,28.92
2023-05-04T08:05:29.508Z,28.74
2023-05-04T08:07:58.618Z,28.80
2023-05-04T08:10:30.262Z,28.81
2023-05-04T08:12:59.616Z,28.86
2023-05-04T08:15:28.672Z,28.52
2023-05-04T08:17:58.169Z,28.47
2023-05-04T08:20:27.258Z,28.49
2023-05-04T08:22:56.840Z,28.49
2023-05-04T08:25:26.675Z,28.71
2023-05-04T08:27:56.578Z,28.63
2023-05-04T08:30:26.311Z,28.67
2023-05-04T08:32:56.733Z,28.55
2023-05-04T08:35:28.898Z,28.66
2023-05-04T08:37:58.384Z,28.64
2023-05-04T08:40:27.490Z,28.66
2023-05-04T08:42:58.387Z,28.70
2023-05-04T08:45:28.264Z,28.66
2023-05-04T08:47:57.800Z,28.49
2023-05-04T08:50:27.360Z,28.48
2023-05-04T08:53:02.431Z,28.38
2023-05-04T08:55:35.069Z,28.48
2023-05-04T08:58:11.581Z,28.45
2023-05-04T09:00:42.433Z,28.44
2023-05-04T09:03:13.788Z,28.58
2023-05-04T09:05:47.427Z,28.65
2023-05-04T09:08:16.640Z,28.59
2023-05-04T09:10:45.688Z,28.59
2023-05-04T09:13:16.096Z,28.58
2023-05-04T09:15:58.517Z,28.57
2023-05-04T09:18:45.751Z,28.57
2023-05-04T09:21:15.251Z,28.53
2023-05-04T09:23:52.666Z,28.39
2023-05-04T09:26:32.769Z,28.40
2023-05-04T09:29:15.526Z,28.36
2023-05-04T09:31:52.695Z,28.36
2023-05-04T09:34:24.196Z,28.07
2023-05-04T09:37:04.436Z,28.08
2023-05-04T09:39:33.826Z,27.98
2023-05-04T09:42:02.997Z,27.90
2023-05-04T09:44:32.252Z,27.85
2023-05-04T09:47:01.684Z,27.95
2023-05-04T09:49:38.439Z,28.02
2023-05-04T09:52:08.333Z,28.10
2023-05-04T09:54:44.066Z,28.01
2023-05-04T09:57:17.193Z,28.05
2023-05-04T09:59:47.094Z,27.93
2023-05-04T10:02:22.737Z,27.90
2023-05-04T10:04:54.519Z,27.75
2023-05-04T10:07:24.355Z,27.83
2023-05-04T10:09:54.771Z,27.87
2023-05-04T10:12:24.074Z,27.87
2023-05-04T10:14:53.838Z,27.86
2023-05-04T10:17:55.521Z,27.66
2023-05-04T10:20:40.528Z,27.52
2023-05-04T10:23:49.988Z,27.52
2023-05-04T10:26:28.640Z,27.56
2023-05-04T10:29:24.741Z,27.59
2023-05-04T10:31:54.477Z,27.66
2023-05-04T10:34:32.843Z,27.72
2023-05-04T10:37:03.191Z,27.72
2023-05-04T10:39:35.502Z,27.73
2023-05-04T10:42:07.764Z,27.74
2023-05-04T10:44:50.602Z,27.73
2023-05-04T10:47:33.875Z,27.63
2023-05-04T10:50:14.779Z,27.61
2023-05-04T10:52:55.161Z,27.66
2023-05-04T10:55:25.933Z,27.75
2023-05-04T10:57:59.043Z,27.78
2023-05-04T11:00:37.662Z,27.78
2023-05-04T11:03:10.255Z,27.72
2023-05-04T11:05:47.540Z,27.54
2023-05-04T11:08:18.315Z,27.46
2023-05-04T11:10:49.942Z,27.49
2023-05-04T11:13:19.700Z,27.40
2023-05-04T11:15:50.878Z,27.51
2023-05-04T11:18:35.182Z,27.59
2023-05-04T11:21:04.722Z,27.64
2023-05-04T11:23:34.461Z,27.72
2023-05-04T11:26:09.239Z,27.72
2023-05-04T11:28:39.537Z,27.67
2023-05-04T11:31:23.245Z,27.63
2023-05-04T11:33:56.078Z,27.59
2023-05-04T11:36:26.482Z,27.56
2023-05-04T11:38:58.694Z,27.56
2023-05-04T11:41:30.772Z,27.63
2023-05-04T11:44:02.868Z,27.68
2023-05-04T11:46:35.559Z,27.96
2023-05-04T11:49:06.631Z,27.99
2023-05-04T11:51:36.992Z,28.05
2023-05-04T11:54:08.289Z,28.10
2023-05-04T11:56:44.565Z,28.05
2023-05-04T11:59:13.948Z,27.92
2023-05-04T12:01:43.161Z,27.83
2023-05-04T12:04:38.355Z,27.78
2023-05-04T12:07:10.696Z,27.65
2023-05-04T12:09:50.618Z,27.62
2023-05-04T12:12:22.385Z,27.60
2023-05-04T12:14:53.775Z,27.43
2023-05-04T12:17:23.571Z,27.51
2023-05-04T12:19:59.117Z,27.40
2023-05-04T12:22:33.942Z,27.32
2023-05-04T12:25:03.612Z,27.32
2023-05-04T12:27:33.878Z,27.27
2023-05-04T12:30:03.308Z,27.19
2023-05-04T12:32:32.645Z,27.13
2023-05-04T12:35:01.927Z,27.06
2023-05-04T12:37:32.920Z,26.97
2023-05-04T12:40:04.381Z,26.92
2023-05-04T12:42:35.440Z,26.81
2023-05-04T12:45:04.798Z,26.77
2023-05-04T12:47:34.172Z,26.72
2023-05-04T12:50:06.557Z,26.69
2023-05-04T12:52:36.383Z,26.69
2023-05-04T12:55:06.770Z,26.71
2023-05-04T12:57:37.231Z,26.71
2023-05-04T13:00:10.907Z,26.70
2023-05-04T13:02:40.820Z,26.67
2023-05-04T13:05:10.710Z,26.69
2023-05-04T13:07:41.024Z,26.56
2023-05-04T13:10:11.648Z,26.50
2023-05-04T13:12:42.621Z,26.48
2023-05-04T13:15:14.132Z,26.47
2023-05-04T13:17:46.588Z,26.45
2023-05-04T13:20:17.478Z,26.45
2023-05-04T13:22:58.646Z,26.49
2023-05-04T13:25:32.896Z,26.48
2023-05-04T13:28:02.629Z,26.50
2023-05-04T13:30:32.225Z,26.51
2023-05-04T13:33:07.752Z,26.48
2023-05-04T13:35:43.780Z,26.44
2023-05-04T13:38:13.430Z,26.50
2023-05-04T13:40:42.457Z,26.49
2023-05-04T13:43:12.566Z,26.50
2023-05-04T13:45:42.053Z,26.51
2023-05-04T13:48:12.031Z,26.52
2023-05-04T13:50:41.854Z,26.54
2023-05-04T13:53:14.193Z,26.52
2023-05-04T13:55:44.265Z,26.60
2023-05-04T13:58:13.451Z,26.67
2023-05-04T14:00:43.122Z,26.77
2023-05-04T14:03:12.672Z,26.82
2023-05-04T14:05:42.936Z,26.92
2023-05-04T14:08:13.138Z,27.09
2023-05-04T14:10:42.291Z,27.12
2023-05-04T14:13:11.870Z,27.12
2023-05-04T14:15:41.292Z,27.25
2023-05-04T14:18:11.127Z,27.23
2023-05-04T14:20:40.593Z,27.22
2023-05-04T14:23:09.773Z,27.28
2023-05-04T14:25:40.101Z,27.33
2023-05-04T14:28:10.041Z,27.39
2023-05-04T14:30:39.581Z,27.31
2023-05-04T14:33:08.919Z,27.30
2023-05-04T14:35:46.036Z,27.31
2023-05-04T14:38:17.134Z,27.29
2023-05-04T14:40:48.995Z,27.27
2023-05-04T14:43:19.404Z,27.30
2023-05-04T14:45:48.591Z,27.21
2023-05-04T14:48:18.743Z,26.65
2023-05-04T14:50:48.157Z,25.85
2023-05-04T14:53:17.334Z,25.53
2023-05-04T14:55:47.043Z,25.17
2023-05-04T14:58:16.996Z,24.71
2023-05-04T15:00:47.686Z,24.00
2023-05-04T15:03:17.189Z,23.46
2023-05-04T15:05:46.208Z,22.94
2023-05-04T15:08:15.570Z,22.60
2023-05-04T15:10:45.086Z,22.10
2023-05-04T15:13:16.874Z,21.68
2023-05-04T15:15:46.347Z,21.50
2023-05-04T15:18:15.632Z,21.18
2023-05-04T15:20:45.569Z,20.99
2023-05-04T15:23:14.800Z,21.00
2023-05-04T15:25:44.211Z,20.85
2023-05-04T15:28:13.539Z,20.72
2023-05-04T15:30:44.186Z,20.67
2023-05-04T15:33:13.584Z,20.57
2023-05-04T15:35:42.752Z,20.42
2023-05-04T15:38:12.936Z,20.32
2023-05-04T15:40:41.974Z,20.29
2023-05-04T15:43:11.486Z,20.35
2023-05-04T15:45:40.891Z,20.30
2023-05-04T15:48:12.519Z,20.31
2023-05-04T15:50:41.976Z,20.25
2023-05-04T15:53:11.254Z,20.24
2023-05-04T15:55:41.381Z,20.32
2023-05-04T15:58:12.236Z,20.31
2023-05-04T16:00:42.026Z,20.32
2023-05-04T16:03:12.364Z,20.45
2023-05-04T16:05:42.218Z,20.55
2023-05-04T16:08:11.328Z,20.41
2023-05-04T16:10:40.960Z,20.63
2023-05-04T16:13:12.419Z,20.37
2023-05-04T16:15:42.304Z,20.40
2023-05-04T16:18:12.676Z,20.35
2023-05-04T16:20:42.411Z,20.26
2023-05-04T16:23:14.795Z,20.38
2023-05-04T16:25:45.576Z,20.34
2023-05-04T16:28:15.270Z,20.20
2023-05-04T16:30:46.368Z,20.25
2023-05-04T16:33:16.040Z,20.12
2023-05-04T16:35:45.369Z,20.13
2023-05-04T16:38:14.645Z,20.29
2023-05-04T16:40:44.748Z,20.10
2023-05-04T16:43:13.765Z,20.18
2023-05-04T16:45:43.029Z,20.14
2023-05-04T16:48:12.260Z,20.05
2023-05-04T16:50:41.846Z,19.90
2023-05-04T16:53:10.932Z,19.78
2023-05-04T16:55:40.812Z,19.71
2023-05-04T16:58:09.883Z,19.67
2023-05-04T17:00:43.878Z,19.73
2023-05-04T17:03:14.048Z,19.56
2023-05-04T17:05:44.324Z,19.77
2023-05-04T17:08:13.800Z,19.75
2023-05-04T17:10:44.032Z,19.70
2023-05-04T17:13:14.019Z,19.78
2023-05-04T17:15:43.218Z,19.72
2023-05-04T17:18:12.772Z,19.64
2023-05-04T17:20:41.923Z,19.85
2023-05-04T17:23:13.612Z,19.92
2023-05-04T17:25:43.176Z,20.02
2023-05-04T17:28:12.457Z,20.02
2023-05-04T17:30:42.920Z,20.20
2023-05-04T17:33:12.654Z,20.27
2023-05-04T17:35:42.888Z,20.28
2023-05-04T17:38:12.415Z,20.34
2023-05-04T17:40:41.944Z,20.36
2023-05-04T17:43:11.839Z,20.28
2023-05-04T17:45:42.127Z,20.35
2023-05-04T17:48:11.572Z,20.28
2023-05-04T17:50:42.551Z,20.37
2023-05-04T17:53:12.045Z,20.23
2023-05-04T17:55:41.311Z,20.37
2023-05-04T17:58:10.690Z,20.28
2023-05-04T18:00:40.371Z,20.40
2023-05-04T18:03:12.004Z,20.50
2023-05-04T18:05:44.808Z,20.53
2023-05-04T18:08:15.521Z,20.41
2023-05-04T18:10:45.313Z,20.32
2023-05-04T18:13:14.831Z,20.30
2023-05-04T18:15:44.348Z,20.34
2023-05-04T18:18:13.491Z,20.29
2023-05-04T18:20:43.312Z,20.27
2023-05-04T18:23:12.635Z,20.15
2023-05-04T18:25:42.217Z,20.10
2023-05-04T18:28:11.697Z,20.17
2023-05-04T18:30:40.963Z,20.31
2023-05-04T18:33:10.821Z,20.32
2023-05-04T18:35:40.424Z,20.28
2023-05-04T18:38:09.892Z,20.36
2023-05-04T18:40:39.256Z,20.33
2023-05-04T18:43:08.310Z,20.37
2023-05-04T18:45:37.760Z,20.28
2023-05-04T18:48:07.326Z,20.39
2023-05-04T18:50:37.575Z,20.31
2023-05-04T18:53:07.241Z,20.25
2023-05-04T18:55:37.294Z,20.50
2023-05-04T18:58:07.104Z,20.39
2023-05-04T19:00:36.677Z,20.38
2023-05-04T19:03:10.116Z,20.42
2023-05-04T19:05:39.710Z,20.39
2023-05-04T19:08:10.342Z,20.31
2023-05-04T19:10:39.937Z,20.35
2023-05-04T19:13:13.022Z,20.43
2023-05-04T19:15:43.854Z,20.29
2023-05-04T19:18:13.319Z,20.38
2023-05-04T19:20:42.764Z,20.52
2023-05-04T19:23:12.124Z,20.52
2023-05-04T19:25:42.462Z,20.51
2023-05-04T19:28:12.894Z,20.44
2023-05-04T19:30:42.865Z,20.38
2023-05-04T19:33:12.285Z,20.32
2023-05-04T19:35:41.656Z,20.35
2023-05-04T19:38:11.033Z,20.23
2023-05-04T19:40:42.681Z,20.27
2023-05-04T19:43:12.970Z,20.23
2023-05-04T19:45:42.435Z,20.14
2023-05-04T19:48:14.127Z,20.24
2023-05-04T19:50:44.240Z,20.36
2023-05-04T19:53:14.015Z,20.34
2023-05-04T19:55:47.711Z,20.27
2023-05-04T19:58:17.750Z,20.26
2023-05-04T20:00:47.752Z,20.21
2023-05-04T20:03:18.203Z,20.29
2023-05-04T20:05:47.639Z,20.33
2023-05-04T20:08:17.308Z,20.11
2023-05-04T20:10:46.883Z,20.12
2023-05-04T20:13:16.140Z,20.06
2023-05-04T20:15:46.220Z,20.02
2023-05-04T20:18:15.631Z,20.04
2023-05-04T20:20:44.760Z,20.19
2023-05-04T20:23:14.440Z,19.99
2023-05-04T20:25:44.451Z,20.11
2023-05-04T20:28:13.879Z,20.01
2023-05-04T20:30:43.026Z,19.97
2023-05-04T20:33:12.818Z,20.03
2023-05-04T20:35:43.196Z,20.08
2023-05-04T20:38:13.093Z,20.02
2023-05-04T20:40:42.395Z,19.95
2023-05-04T20:43:12.425Z,19.96
2023-05-04T20:45:42.700Z,20.06
2023-05-04T20:48:12.094Z,20.00
2023-05-04T20:50:54.941Z,19.92
2023-05-04T20:53:31.617Z,19.83
2023-05-04T20:56:08.538Z,19.98
2023-05-04T20:58:38.156Z,19.86
2023-05-04T21:01:08.705Z,19.94
2023-05-04T21:03:38.617Z,19.90
2023-05-04T21:06:08.487Z,20.07
2023-05-04T21:08:37.880Z,20.05
2023-05-04T21:11:07.836Z,20.09
2023-05-04T21:13:37.371Z,20.04
2023-05-04T21:16:07.005Z,19.95
2023-05-04T21:18:37.084Z,19.98
2023-05-04T21:21:06.943Z,19.93
2023-05-04T21:23:36.560Z,19.92
2023-05-04T21:26:06.486Z,19.80
2023-05-04T21:28:36.438Z,19.86
2023-05-04T21:31:09.842Z,19.97
2023-05-04T21:33:39.292Z,20.01
2023-05-04T21:36:15.769Z,19.91
2023-05-04T21:38:45.176Z,19.86
2023-05-04T21:41:18.420Z,19.77
2023-05-04T21:43:47.889Z,19.81
2023-05-04T21:46:17.635Z,19.81
2023-05-04T21:48:47.066Z,19.84
2023-05-04T21:51:17.586Z,19.87
2023-05-04T21:53:48.454Z,19.76
2023-05-04T21:56:19.049Z,19.77
2023-05-04T21:58:48.395Z,19.79
2023-05-04T22:01:19.392Z,19.78
2023-05-04T22:03:48.640Z,19.66
2023-05-04T22:06:18.661Z,19.70
2023-05-04T22:08:47.656Z,19.66
2023-05-04T22:11:16.965Z,19.71
2023-05-04T22:13:46.096Z,19.68
2023-05-04T22:16:15.297Z,19.68
2023-05-04T22:18:44.761Z,19.62
2023-05-04T22:21:14.052Z,19.66
2023-05-04T22:23:43.341Z,19.70
2023-05-04T22:26:13.295Z,19.61
2023-05-04T22:28:42.584Z,19.59
2023-05-04T22:31:11.735Z,19.67
2023-05-04T22:33:41.213Z,19.60
2023-05-04T22:36:10.629Z,19.58
2023-05-04T22:38:40.538Z,19.55
2023-05-04T22:41:09.699Z,19.63
2023-05-04T22:43:38.763Z,19.69
2023-05-04T22:46:10.986Z,19.62
2023-05-04T22:48:40.088Z,19.62
2023-05-04T22:51:09.721Z,19.45
2023-05-04T22:53:38.885Z,19.57
2023-05-04T22:56:08.276Z,19.55
2023-05-04T22:58:37.449Z,19.57
2023-05-04T23:01:12.955Z,19.57
2023-05-04T23:03:42.639Z,19.56
2023-05-04T23:06:12.029Z,19.58
2023-05-04T23:08:41.211Z,19.62
2023-05-04T23:11:10.814Z,19.58
2023-05-04T23:13:40.947Z,19.65
2023-05-04T23:16:10.146Z,19.64
2023-05-04T23:18:39.522Z,19.49
2023-05-04T23:21:08.892Z,19.52
2023-05-04T23:23:38.084Z,19.46
2023-05-04T23:26:07.637Z,19.52
2023-05-04T23:28:37.105Z,19.50
2023-05-04T23:31:06.274Z,19.52
2023-05-04T23:33:35.667Z,19.58
2023-05-04T23:36:04.817Z,19.52
2023-05-04T23:38:33.977Z,19.55
2023-05-04T23:41:07.563Z,19.39
2023-05-04T23:43:37.034Z,19.39
2023-05-04T23:46:07.198Z,19.40
2023-05-04T23:48:36.639Z,19.36
2023-05-04T23:51:05.991Z,19.35
2023-05-04T23:53:38.622Z,19.49
2023-05-04T23:56:08.732Z,19.54
2023-05-04T23:58:38.374Z,19.57
